San Antonio, TX

8:51 AM CST on December 19, 2014 (GMT -0600)
Monticello Park | Change Station
CLOSE
Current Station
Personal Weather Station
Location: San Antonio, TX
Elevation: 751 ft
Nearby Weather Stations

Elev 751 ft 29.47 °N, 98.53 °W | Updated 8 minutes ago

Overcast
Overcast
51.3 °F
Feels Like 51.3 °F
N
11.0
Wind Variable Wind from NNW

Today
High -- | Low -- °F
--% Chance of Precip.
Yesterday
High -- | Low -- °F
Precip. -- in
7:23 AM 5:39 PM
Waning Crescent, 7% visible
Pressure 30.10 in
Visibility 10.0 miles
Clouds Mostly Cloudy 1100 ft
Overcast 2200 ft
Dew Point 49 °F
Humidity 91%
Rainfall 0.12 in
Snow Depth Not available.
UV 0 out of 12
Pollen 4.60 out of 12
Air Quality Not available.
Flu Activity Not available.
SPECI KSAT 191430Z 01013G20KT 10SM BKN011 OVC022 11/08 A3010 RMK AO2 DZE30 P0000 T01060083

More Conditions Fewer Conditions

Pressure 30.10 in
Visibility 10.0 miles
Clouds Mostly Cloudy 1100 ft
Overcast 2200 ft
Dew Point 49 °F
Humidity 91%
Rainfall 0.12 in
Snow Depth Not available.
UV 0 out of 12
Pollen 4.60 out of 12
Air Quality Not available.
Flu Activity Not available.
SPECI KSAT 191430Z 01013G20KT 10SM BKN011 OVC022 11/08 A3010 RMK AO2 DZE30 P0000 T01060083

More Conditions Fewer Conditions

10-Day Weather Forecast

Almanac

Astronomy

Dec. 19, 2014 Rise Set
Actual Time
Civil Twilight
Nautical Twilight
Astronomical Twilight
Moon
Length of Visible Light
Length of Day
Tomorrow will be .
, % of the Moon is Illuminated

Today's Extremes

State Highs State Lows

Community

WunderPhotos

Upload Photos

1,778,988 photos uploaded!

WunderBlogs® & News

Nearby

Air Quality

  Air Quality AQ Index Pollutant
Not available.

Snow Depth

Station Depth Elevation

Earthquake Activity

City Distance Mag. Time & Date
Minimum magnitude displayed is 2.5.

Coastal Water Temperatures

Place Temperature

Nearby Weather Stations